Santiago Rubio

Scout - Girona
6 Aug 2028
Sonntag
Verarbeitung

Persönlichkeit

Anpassungsfähigkeit (15) Ehrgeiz (17) Kontroverse (5) Loyalität (14) Druck (5) Professionalität (16) Fairness (1) Temperament (3)

Profil

Trainerstil Demokratisch
Lizenz Kontinentale B
Entschlossenheit 14
Menschenführung 7
Motivation 13
Disziplin 8
Arbeitszufriedenheit
100%
Ermüdung
0%
Rolle Scout
Gehalt 109.3K p/W
Vertrag 14.03.2030

Leistung

Verhalten Gut
Trainingseffektivität
54%
Spielerentwicklung
60%
Verletzungsprävention
35%
Taktische Umsetzung
70%

Letzte Ereignisse

Nahm an einer Scouting-Besprechung teil jetzt
Nahm an einer Scouting-Besprechung teil jetzt
Nahm an einer Scouting-Besprechung teil 7T her
Nahm an einer Scouting-Besprechung teil 7T her
Nahm an einer Scouting-Besprechung teil 7T her
Nahm an einer Scouting-Besprechung teil 7T her
Nahm an einer Scouting-Besprechung teil 14T her
Nahm an einer Scouting-Besprechung teil 14T her

Aktuell beobachtet

113
Spieler Verein Status Fähigkeit Vertrauen Beobachtet Zuletzt beobachtet Letzte Stimme
David Larrubia Málaga Aktiv 138 / 128 58% 1 31.07.2028 -
Íñigo Lekue Cultural Leonesa Aktiv 127 / 128 55% 1 12.06.2028 -
Luiz Felipe Ceuta Aktiv 121 / 142 55% 1 01.06.2028 -
Marc Bernal Sevilla Aktiv 137 / 145 40% 1 27.07.2027 -
Izan Merino Málaga Aktiv 130 / 141 40% 1 27.07.2027 -
Leo Castledine Middlesbrough Aktiv 119 / 138 40% 1 05.07.2027 -
Calum Agius Crewe Alexandra Aktiv 103 / 94 40% 3 14.06.2027 -
Samir El Mourabet RC Strasbourg Aktiv 124 / 127 40% 1 14.06.2027 -
Thomas Carrique Andorra Aktiv 121 / 125 51% 1 01.06.2027 -
Yusi Alavés Aktiv 141 / 124 40% 4 27.05.2027 -
Alpha Touré FC Metz Aktiv 116 / 127 40% 4 26.05.2027 -
Victor Hernandez Santa Fe Aktiv 117 / 112 40% 2 25.05.2027 -
Lucas Bergvall Tottenham Aktiv 139 / 151 40% 1 25.05.2027 -
Caleb Yirenkyi Coventry City Aktiv 127 / 136 40% 4 23.05.2027 -
Jonathan Asp-Jensen Deportivo La Coruña Aktiv 122 / 121 40% 1 23.05.2027 -
Oscar Schwartau Norwich City Aktiv 132 / 132 40% 3 18.05.2027 -
Yael Padilla Tijuana Aktiv 130 / 106 40% 1 18.05.2027 -
Kazunari Kita Real Sociedad Aktiv 96 / 103 67% 6 17.05.2027 Beobachten
Lander Astiazarán Real Sociedad Aktiv 107 / 107 67% 3 16.05.2027 Beobachten
Othmane Maamma Watford Aktiv 133 / 133 40% 2 16.05.2027 -
Lucas Høgsberg RC Strasbourg Aktiv 127 / 143 40% 3 14.05.2027 -
Mateus Mané Burnley Aktiv 122 / 138 40% 1 13.05.2027 -
Jan Bürger Northampton Town Aktiv 104 / 111 40% 2 11.05.2027 -
Olívio Tomé Benfica Aktiv 118 / 106 40% 1 09.05.2027 -
Sindre Walle Egeli Udinese Aktiv 119 / 139 40% 5 06.05.2027 -
Sascha Britschgi AC Milan Aktiv 129 / 121 40% 1 06.05.2027 -
James Bacca La Equidad Aktiv 127 / 124 40% 3 01.05.2027 -
Kirill Glebov CSKA Moscow Aktiv 140 / 120 40% 2 30.04.2027 -
Louis Leroux FC Nantes Aktiv 124 / 132 40% 1 28.04.2027 -
William Gomes Porto Aktiv 150 / 146 40% 2 27.04.2027 -
Manu Rodríguez Gijón Aktiv 109 / 108 40% 1 27.04.2027 -
Jan Virgili Club Brugge Aktiv 144 / 129 40% 1 26.04.2027 -
Eliás Montiel Borussia Dortmund Aktiv 118 / 142 40% 1 20.04.2027 -
Pau Navarro Villarreal Aktiv 154 / 145 40% 2 18.04.2027 -
Chemsdine Talbi Sunderland Aktiv 145 / 149 40% 4 12.04.2027 -
Monty Batlhabane Polokwane City Aktiv 98 / 94 40% 1 12.04.2027 -
Emirhan Başyiğit Sivasspor Aktiv 91 / 120 40% 1 11.04.2027 -
Tiago Freitas Benfica Aktiv 108 / 108 40% 1 07.04.2027 -
Zack Nelson Ternana Aktiv 88 / 103 40% 1 06.04.2027 -
James Dornelly Peterborough United Aktiv 100 / 108 40% 1 06.04.2027 -
Victor Froholdt Porto Aktiv 154 / 158 40% 3 05.04.2027 -
Mathys Tel Tottenham Aktiv 150 / 146 40% 2 03.04.2027 -
Gianluca Prestianni Benfica Aktiv 126 / 144 40% 2 02.04.2027 -
Ethan Williams Peterborough United Aktiv 106 / 127 40% 2 01.04.2027 -
Araphat Mohammed Ashanti Gold Aktiv 117 / 114 40% 1 01.04.2027 -
Pau Cubarsí Real Sociedad Aktiv 157 / 170 40% 1 31.03.2027 -
Martim Cunha Porto Aktiv 104 / 110 40% 1 31.03.2027 -
Gorka Gorosabel Real Sociedad Aktiv 112 / 117 67% 1 27.03.2027 Beobachten
Malick Fofana Sunderland Aktiv 145 / 140 40% 1 11.03.2027 -
Nico O'Reilly Manchester City Aktiv 163 / 148 40% 1 09.03.2027 -
Veljko Radosavljević Cukaricki Aktiv 118 / 102 40% 1 09.03.2027 -
Dehmaine Tabibou FC Nantes Aktiv 119 / 123 40% 1 04.03.2027 -
Aitor Fraga Real Sociedad Aktiv 124 / 134 40% 2 31.12.2026 -
Zion Suzuki Aston Villa Aktiv 133 / 140 40% 1 31.12.2026 -
Cristian Uribe Monaco Aktiv 155 / 144 40% 5 30.12.2026 -
Pau Víctor Braga Aktiv 139 / 130 40% 1 30.12.2026 -
Aaron Hickey Brentford Aktiv 138 / 143 40% 1 29.12.2026 -
Florentino Luís Ipswich Town Aktiv 137 / 148 40% 1 29.12.2026 -
Joseph Leclercq Tottenham Aktiv 145 / 143 40% 1 29.12.2026 -
Moisés Caicedo Chelsea Aktiv 177 / 174 40% 5 27.12.2026 -
Eduardo Lozano Botafogo Aktiv 129 / 132 40% 1 27.12.2026 -
José Ángel Carmona Sevilla Aktiv 159 / 147 40% 1 23.12.2026 -
James Trafford Leeds United Aktiv 139 / 144 40% 1 23.12.2026 -
Maxence Lacroix Chelsea Aktiv 150 / 149 40% 1 21.12.2026 -
Luiz Júnior Villarreal Aktiv 146 / 145 40% 1 18.12.2026 -
Andrés Martín Racing Santander Aktiv 123 / 142 40% 1 15.12.2026 -
Tino Livramento Newcastle United Aktiv 165 / 157 40% 2 14.12.2026 -
Jacob Greaves Ipswich Town Aktiv 127 / 135 40% 1 14.12.2026 -
Radek Vítek Middlesbrough Aktiv 140 / 126 40% 1 13.12.2026 -
Yeremy Pino Crystal Palace Aktiv 160 / 154 40% 1 09.12.2026 -
Adam Wharton Crystal Palace Aktiv 162 / 161 40% 1 08.12.2026 -
Lucien Agoumé Sevilla Aktiv 135 / 142 40% 1 08.12.2026 -
Manu Koné AS Roma Aktiv 168 / 173 40% 1 04.12.2026 -
Agustín Ruberto River Plate Aktiv 131 / 139 40% 1 04.12.2026 -
Pape Guèye Villarreal Aktiv 163 / 158 40% 1 04.12.2026 -
Oihan Sancet Athletic Bilbao Aktiv 147 / 153 40% 2 30.11.2026 -
Marcel Ruiz Crystal Palace Aktiv 144 / 147 40% 1 30.11.2026 -
Boubacar Kamara Aston Villa Aktiv 172 / 158 40% 4 24.11.2026 -
Brian Rodríguez Club America Aktiv 128 / 119 40% 2 23.11.2026 -
Alfon Sevilla Aktiv 136 / 144 40% 1 21.11.2026 -
Jake O'Brien Everton Aktiv 143 / 153 40% 1 20.11.2026 -
Mikel Jauregizar Athletic Bilbao Aktiv 147 / 155 40% 1 15.11.2026 -
Carlos Romero Villarreal Aktiv 137 / 144 40% 1 10.11.2026 -
Fran García Betis Aktiv 137 / 134 40% 1 10.11.2026 -
Vitinha Paris Saint-Germain Aktiv 187 / 182 40% 3 08.11.2026 -
Morten Hjulmand Atlético Madrid Aktiv 150 / 151 40% 1 08.11.2026 -
Cody Gakpo Liverpool Aktiv 162 / 146 40% 1 07.11.2026 -
Jon Gorrotxategi Real Sociedad Aktiv 129 / 140 40% 1 05.11.2026 -
Nathan Collins Brentford Aktiv 144 / 146 40% 1 05.11.2026 -
Ousmane Diomande Nottingham Forest Aktiv 152 / 166 40% 2 04.11.2026 -
Alan Lescano Argentinos Juniors Aktiv 125 / 118 40% 1 04.11.2026 -
Youssoufa Moukoko FC Copenhagen Aktiv 115 / 128 40% 1 03.11.2026 -
Ramón Juárez Club America Aktiv 120 / 137 40% 1 01.11.2026 -
Santiago Montiel Independiente Aktiv 138 / 135 40% 2 31.10.2026 -
Federico Pereira Toulouse FC Aktiv 147 / 135 40% 1 30.10.2026 -
Micky van de Ven Tottenham Aktiv 166 / 153 40% 1 30.10.2026 -
Omar El Hilali Espanyol Aktiv 149 / 141 40% 1 29.10.2026 -
Alex Luna Instituto Aktiv 116 / 140 40% 1 27.10.2026 -
Maximo Ingravidi Colón Aktiv 82 / 122 40% 1 26.10.2026 -
Fidel Ambríz Monterrey Aktiv 110 / 126 40% 1 25.10.2026 -
Franco Ibarra Rosario Central Aktiv 130 / 138 40% 1 19.10.2026 -
Juan Bisanz Huracán Aktiv 148 / 114 40% 2 18.10.2026 -
Lewis Hall Newcastle United Aktiv 153 / 142 40% 2 14.10.2026 -
Quinten Timber Crystal Palace Aktiv 137 / 152 40% 1 13.10.2026 -
Richard Ledezma Guadalajara Aktiv 121 / 116 40% 2 12.10.2026 -
Erik Lira Cruz Azul Aktiv 120 / 140 40% 1 12.10.2026 -
Mats Wieffer Brighton Aktiv 155 / 154 40% 1 11.10.2026 -
Aníbal Moreno River Plate Aktiv 131 / 146 40% 1 07.10.2026 -
Juanlu Bournemouth Aktiv 149 / 140 40% 1 05.10.2026 -
Tiago Palacios Estudiantes Aktiv 131 / 133 40% 1 22.09.2026 -
Kevin Zenón Boca Juniors Aktiv 122 / 116 40% 1 20.09.2026 -
Leandro Lozano Boca Juniors Aktiv 111 / 112 40% 1 11.09.2026 -
Elías Gómez Vélez Aktiv 108 / 126 40% 1 02.08.2026 -